sensor_id;sensor_type;location;lat;lon;timestamp;temperature;humidity
11246;DHT22;59870;50.106;8.580;2022-09-28T01:14:21;13.80;96.50
11246;DHT22;59870;50.106;8.580;2022-09-28T01:17:16;14.00;96.50
11246;DHT22;59870;50.106;8.580;2022-09-28T02:53:28;14.00;96.30
11246;DHT22;59870;50.106;8.580;2022-09-28T03:02:13;14.00;96.20
11246;DHT22;59870;50.106;8.580;2022-09-28T03:11:57;13.80;95.90
11246;DHT22;59870;50.106;8.580;2022-09-28T03:15:42;14.00;95.60
11246;DHT22;59870;50.106;8.580;2022-09-28T03:18:31;14.20;95.50
11246;DHT22;59870;50.106;8.580;2022-09-28T04:32:39;13.70;95.90
11246;DHT22;59870;50.106;8.580;2022-09-28T04:39:37;13.70;95.90
11246;DHT22;59870;50.106;8.580;2022-09-28T04:42:11;13.60;95.70
11246;DHT22;59870;50.106;8.580;2022-09-28T04:44:52;13.90;95.80
11246;DHT22;59870;50.106;8.580;2022-09-28T04:47:29;13.70;95.80
11246;DHT22;59870;50.106;8.580;2022-09-28T04:50:33;13.70;95.70
11246;DHT22;59870;50.106;8.580;2022-09-28T04:53:46;13.70;95.70
11246;DHT22;59870;50.106;8.580;2022-09-28T05:23:21;13.60;95.60
11246;DHT22;59870;50.106;8.580;2022-09-28T05:26:02;13.80;95.60
11246;DHT22;59870;50.106;8.580;2022-09-28T05:28:31;13.60;95.30
11246;DHT22;59870;50.106;8.580;2022-09-28T05:31:37;13.80;95.60
11246;DHT22;59870;50.106;8.580;2022-09-28T05:34:05;13.80;95.40
11246;DHT22;59870;50.106;8.580;2022-09-28T05:36:33;13.60;95.20
11246;DHT22;59870;50.106;8.580;2022-09-28T05:39:02;13.80;95.30
11246;DHT22;59870;50.106;8.580;2022-09-28T05:41:32;13.60;95.10
11246;DHT22;59870;50.106;8.580;2022-09-28T05:44:00;13.70;95.20
11246;DHT22;59870;50.106;8.580;2022-09-28T05:46:29;13.80;95.10
11246;DHT22;59870;50.106;8.580;2022-09-28T05:49:00;13.60;94.80
11246;DHT22;59870;50.106;8.580;2022-09-28T05:51:27;13.80;95.10
11246;DHT22;59870;50.106;8.580;2022-09-28T05:53:55;13.60;95.00
11246;DHT22;59870;50.106;8.580;2022-09-28T05:56:30;13.30;94.90
11246;DHT22;59870;50.106;8.580;2022-09-28T05:58:57;13.50;95.00
11246;DHT22;59870;50.106;8.580;2022-09-28T06:01:28;13.70;95.10
11246;DHT22;59870;50.106;8.580;2022-09-28T06:03:57;13.70;95.00
11246;DHT22;59870;50.106;8.580;2022-09-28T06:06:25;13.70;95.00
11246;DHT22;59870;50.106;8.580;2022-09-28T06:08:53;13.70;94.90
11246;DHT22;59870;50.106;8.580;2022-09-28T06:11:44;13.60;94.90
11246;DHT22;59870;50.106;8.580;2022-09-28T06:14:25;13.40;94.80
11246;DHT22;59870;50.106;8.580;2022-09-28T06:16:55;13.60;95.10
11246;DHT22;59870;50.106;8.580;2022-09-28T06:19:58;13.40;95.10
11246;DHT22;59870;50.106;8.580;2022-09-28T06:23:05;13.40;95.10
11246;DHT22;59870;50.106;8.580;2022-09-28T06:25:40;13.40;95.60
11246;DHT22;59870;50.106;8.580;2022-09-28T06:53:40;13.80;95.40
11246;DHT22;59870;50.106;8.580;2022-09-28T06:56:15;13.90;95.10
11246;DHT22;59870;50.106;8.580;2022-09-28T06:58:45;13.80;95.00
11246;DHT22;59870;50.106;8.580;2022-09-28T07:01:15;13.90;95.00
11246;DHT22;59870;50.106;8.580;2022-09-28T07:03:58;14.20;94.80
11246;DHT22;59870;50.106;8.580;2022-09-28T07:06:47;14.20;95.00
11246;DHT22;59870;50.106;8.580;2022-09-28T07:22:18;14.50;94.50
11246;DHT22;59870;50.106;8.580;2022-09-28T08:33:23;17.90;87.60
11246;DHT22;59870;50.106;8.580;2022-09-28T08:36:10;18.20;86.70
11246;DHT22;59870;50.106;8.580;2022-09-28T08:39:04;18.40;85.20
11246;DHT22;59870;50.106;8.580;2022-09-28T08:42:01;18.40;83.60
11246;DHT22;59870;50.106;8.580;2022-09-28T09:21:40;18.00;80.70
11246;DHT22;59870;50.106;8.580;2022-09-28T09:24:23;18.00;80.60
11246;DHT22;59870;50.106;8.580;2022-09-28T09:30:07;18.20;79.10
11246;DHT22;59870;50.106;8.580;2022-09-28T09:32:51;18.30;80.00
11246;DHT22;59870;50.106;8.580;2022-09-28T09:35:48;18.40;76.80
11246;DHT22;59870;50.106;8.580;2022-09-28T09:38:55;18.40;78.10
11246;DHT22;59870;50.106;8.580;2022-09-28T09:45:02;18.50;78.10
11246;DHT22;59870;50.106;8.580;2022-09-28T09:48:14;18.60;77.80
11246;DHT22;59870;50.106;8.580;2022-09-28T09:50:48;18.60;76.90
11246;DHT22;59870;50.106;8.580;2022-09-28T09:53:24;19.00;76.20
11246;DHT22;59870;50.106;8.580;2022-09-28T09:56:03;18.70;76.00
11246;DHT22;59870;50.106;8.580;2022-09-28T09:58:52;18.70;77.50
11246;DHT22;59870;50.106;8.580;2022-09-28T10:01:38;18.70;75.40
11246;DHT22;59870;50.106;8.580;2022-09-28T10:04:31;18.60;74.60
11246;DHT22;59870;50.106;8.580;2022-09-28T10:07:17;18.60;76.00
11246;DHT22;59870;50.106;8.580;2022-09-28T10:09:47;18.60;75.60
11246;DHT22;59870;50.106;8.580;2022-09-28T10:12:35;18.60;74.30
11246;DHT22;59870;50.106;8.580;2022-09-28T10:15:05;18.70;74.50
11246;DHT22;59870;50.106;8.580;2022-09-28T10:17:45;18.60;74.10
11246;DHT22;59870;50.106;8.580;2022-09-28T10:20:41;18.50;73.80
11246;DHT22;59870;50.106;8.580;2022-09-28T10:23:29;18.50;73.20
11246;DHT22;59870;50.106;8.580;2022-09-28T10:26:01;18.50;73.80
11246;DHT22;59870;50.106;8.580;2022-09-28T10:28:39;18.50;74.10
11246;DHT22;59870;50.106;8.580;2022-09-28T10:34:12;18.50;76.10
11246;DHT22;59870;50.106;8.580;2022-09-28T10:37:01;18.80;75.40
11246;DHT22;59870;50.106;8.580;2022-09-28T10:39:52;18.60;75.40
11246;DHT22;59870;50.106;8.580;2022-09-28T10:42:26;18.60;75.00
11246;DHT22;59870;50.106;8.580;2022-09-28T10:45:20;18.60;74.30
11246;DHT22;59870;50.106;8.580;2022-09-28T10:47:49;18.60;76.50
11246;DHT22;59870;50.106;8.580;2022-09-28T10:50:24;18.70;75.40
11246;DHT22;59870;50.106;8.580;2022-09-28T10:53:18;18.70;75.60
11246;DHT22;59870;50.106;8.580;2022-09-28T10:56:21;18.80;73.60
11246;DHT22;59870;50.106;8.580;2022-09-28T11:02:30;18.90;74.40
11246;DHT22;59870;50.106;8.580;2022-09-28T11:05:06;18.90;73.20
11246;DHT22;59870;50.106;8.580;2022-09-28T11:07:46;18.90;70.80
11246;DHT22;59870;50.106;8.580;2022-09-28T11:10:24;18.90;71.60
11246;DHT22;59870;50.106;8.580;2022-09-28T11:12:56;19.20;71.20
11246;DHT22;59870;50.106;8.580;2022-09-28T11:15:30;19.00;72.10
11246;DHT22;59870;50.106;8.580;2022-09-28T11:18:37;19.00;72.00
11246;DHT22;59870;50.106;8.580;2022-09-28T11:21:14;19.00;72.90
11246;DHT22;59870;50.106;8.580;2022-09-28T11:26:58;19.10;69.60
11246;DHT22;59870;50.106;8.580;2022-09-28T11:29:42;19.10;71.00
11246;DHT22;59870;50.106;8.580;2022-09-28T11:32:40;19.10;68.30
11246;DHT22;59870;50.106;8.580;2022-09-28T11:35:23;19.50;69.40
11246;DHT22;59870;50.106;8.580;2022-09-28T11:55:23;19.10;66.30
11246;DHT22;59870;50.106;8.580;2022-09-28T11:58:01;19.10;68.80
11246;DHT22;59870;50.106;8.580;2022-09-28T12:00:33;19.10;69.40
11246;DHT22;59870;50.106;8.580;2022-09-28T12:03:13;19.20;68.40
11246;DHT22;59870;50.106;8.580;2022-09-28T12:06:01;19.40;66.40
11246;DHT22;59870;50.106;8.580;2022-09-28T12:08:34;19.40;67.00
11246;DHT22;59870;50.106;8.580;2022-09-28T12:11:16;19.30;68.30
11246;DHT22;59870;50.106;8.580;2022-09-28T12:14:12;19.40;66.60
11246;DHT22;59870;50.106;8.580;2022-09-28T12:16:50;19.30;67.00
11246;DHT22;59870;50.106;8.580;2022-09-28T12:19:46;19.30;66.80
11246;DHT22;59870;50.106;8.580;2022-09-28T12:22:35;19.20;66.70
11246;DHT22;59870;50.106;8.580;2022-09-28T12:25:13;19.30;68.70
11246;DHT22;59870;50.106;8.580;2022-09-28T12:28:00;19.30;68.70
11246;DHT22;59870;50.106;8.580;2022-09-28T12:30:33;19.30;67.30
11246;DHT22;59870;50.106;8.580;2022-09-28T12:33:11;19.50;66.60
11246;DHT22;59870;50.106;8.580;2022-09-28T12:46:43;19.40;67.10
11246;DHT22;59870;50.106;8.580;2022-09-28T12:49:39;19.40;65.50
11246;DHT22;59870;50.106;8.580;2022-09-28T12:53:06;19.30;66.60
11246;DHT22;59870;50.106;8.580;2022-09-28T12:59:22;19.40;66.40
11246;DHT22;59870;50.106;8.580;2022-09-28T13:07:46;19.30;65.60
11246;DHT22;59870;50.106;8.580;2022-09-28T13:10:35;19.30;66.60
11246;DHT22;59870;50.106;8.580;2022-09-28T13:13:16;19.30;65.70
11246;DHT22;59870;50.106;8.580;2022-09-28T13:15:55;19.20;66.00
11246;DHT22;59870;50.106;8.580;2022-09-28T13:18:30;19.50;66.00
11246;DHT22;59870;50.106;8.580;2022-09-28T13:21:16;19.30;65.10
11246;DHT22;59870;50.106;8.580;2022-09-28T13:23:47;19.30;65.40
11246;DHT22;59870;50.106;8.580;2022-09-28T13:26:26;19.30;64.90
11246;DHT22;59870;50.106;8.580;2022-09-28T13:29:04;19.30;65.30
11246;DHT22;59870;50.106;8.580;2022-09-28T13:31:43;19.30;66.00
11246;DHT22;59870;50.106;8.580;2022-09-28T13:34:17;19.30;65.40
11246;DHT22;59870;50.106;8.580;2022-09-28T13:37:22;19.60;64.60
11246;DHT22;59870;50.106;8.580;2022-09-28T13:44:07;19.40;65.50
11246;DHT22;59870;50.106;8.580;2022-09-28T13:49:56;19.40;66.80
11246;DHT22;59870;50.106;8.580;2022-09-28T13:59:17;19.40;65.30
11246;DHT22;59870;50.106;8.580;2022-09-28T14:02:52;19.50;65.30
11246;DHT22;59870;50.106;8.580;2022-09-28T14:07:56;19.50;64.90
11246;DHT22;59870;50.106;8.580;2022-09-28T14:10:47;19.80;63.40
11246;DHT22;59870;50.106;8.580;2022-09-28T14:13:57;19.60;65.00
11246;DHT22;59870;50.106;8.580;2022-09-28T14:16:27;19.60;64.90
11246;DHT22;59870;50.106;8.580;2022-09-28T14:25:21;19.70;64.50
11246;DHT22;59870;50.106;8.580;2022-09-28T14:28:24;19.60;64.10
11246;DHT22;59870;50.106;8.580;2022-09-28T14:30:55;19.70;64.80
11246;DHT22;59870;50.106;8.580;2022-09-28T14:33:36;19.60;63.80
11246;DHT22;59870;50.106;8.580;2022-09-28T14:36:07;19.80;65.40
11246;DHT22;59870;50.106;8.580;2022-09-28T14:39:28;19.70;64.00
11246;DHT22;59870;50.106;8.580;2022-09-28T15:30:47;19.00;71.30
11246;DHT22;59870;50.106;8.580;2022-09-28T15:33:32;19.20;70.30
11246;DHT22;59870;50.106;8.580;2022-09-28T15:36:24;19.10;71.10
11246;DHT22;59870;50.106;8.580;2022-09-28T15:41:28;19.10;69.60
11246;DHT22;59870;50.106;8.580;2022-09-28T15:46:40;18.80;69.70
11246;DHT22;59870;50.106;8.580;2022-09-28T15:49:24;19.00;70.20
11246;DHT22;59870;50.106;8.580;2022-09-28T15:51:53;18.80;69.60
11246;DHT22;59870;50.106;8.580;2022-09-28T15:54:34;18.80;70.50
11246;DHT22;59870;50.106;8.580;2022-09-28T15:57:03;18.80;68.80
11246;DHT22;59870;50.106;8.580;2022-09-28T15:59:52;18.80;68.40
11246;DHT22;59870;50.106;8.580;2022-09-28T16:02:23;18.80;68.40
11246;DHT22;59870;50.106;8.580;2022-09-28T16:05:00;19.00;68.00
11246;DHT22;59870;50.106;8.580;2022-09-28T16:07:51;18.80;68.70
11246;DHT22;59870;50.106;8.580;2022-09-28T16:10:31;18.80;68.40
11246;DHT22;59870;50.106;8.580;2022-09-28T16:13:09;18.80;68.90
11246;DHT22;59870;50.106;8.580;2022-09-28T16:15:41;18.90;69.30
11246;DHT22;59870;50.106;8.580;2022-09-28T16:36:40;18.60;70.20
11246;DHT22;59870;50.106;8.580;2022-09-28T16:39:15;18.70;71.30
11246;DHT22;59870;50.106;8.580;2022-09-28T16:41:54;18.40;71.00
11246;DHT22;59870;50.106;8.580;2022-09-28T16:44:26;18.70;70.60
11246;DHT22;59870;50.106;8.580;2022-09-28T16:46:59;18.70;70.20
11246;DHT22;59870;50.106;8.580;2022-09-28T16:49:28;18.70;70.50
11246;DHT22;59870;50.106;8.580;2022-09-28T16:51:57;18.60;71.40
11246;DHT22;59870;50.106;8.580;2022-09-28T16:54:28;18.60;72.00
11246;DHT22;59870;50.106;8.580;2022-09-28T16:57:15;18.60;72.30
11246;DHT22;59870;50.106;8.580;2022-09-28T16:59:42;18.40;72.20
11246;DHT22;59870;50.106;8.580;2022-09-28T17:02:20;18.30;70.90
11246;DHT22;59870;50.106;8.580;2022-09-28T17:05:11;18.30;70.60
11246;DHT22;59870;50.106;8.580;2022-09-28T17:07:40;18.30;70.80
11246;DHT22;59870;50.106;8.580;2022-09-28T17:10:15;18.20;71.10
11246;DHT22;59870;50.106;8.580;2022-09-28T17:12:43;18.20;71.00
11246;DHT22;59870;50.106;8.580;2022-09-28T17:15:10;18.20;73.20
11246;DHT22;59870;50.106;8.580;2022-09-28T17:17:38;18.10;73.10
11246;DHT22;59870;50.106;8.580;2022-09-28T17:20:18;18.10;74.40
11246;DHT22;59870;50.106;8.580;2022-09-28T17:22:50;18.00;73.60
11246;DHT22;59870;50.106;8.580;2022-09-28T17:25:21;18.00;73.70
11246;DHT22;59870;50.106;8.580;2022-09-28T17:27:50;18.00;74.60
11246;DHT22;59870;50.106;8.580;2022-09-28T17:30:20;18.30;76.10
11246;DHT22;59870;50.106;8.580;2022-09-28T17:32:52;18.30;74.30
11246;DHT22;59870;50.106;8.580;2022-09-28T17:35:20;17.90;73.60
11246;DHT22;59870;50.106;8.580;2022-09-28T17:37:51;17.90;75.00
11246;DHT22;59870;50.106;8.580;2022-09-28T17:40:24;17.90;74.80
11246;DHT22;59870;50.106;8.580;2022-09-28T17:42:55;17.80;75.70
11246;DHT22;59870;50.106;8.580;2022-09-28T17:45:23;17.80;76.80
11246;DHT22;59870;50.106;8.580;2022-09-28T17:47:56;17.70;77.30
11246;DHT22;59870;50.106;8.580;2022-09-28T17:50:28;17.70;78.10
11246;DHT22;59870;50.106;8.580;2022-09-28T17:52:56;17.70;78.40
11246;DHT22;59870;50.106;8.580;2022-09-28T17:55:28;17.60;79.20
11246;DHT22;59870;50.106;8.580;2022-09-28T17:58:00;17.70;79.80
11246;DHT22;59870;50.106;8.580;2022-09-28T18:00:29;17.50;79.40
11246;DHT22;59870;50.106;8.580;2022-09-28T18:02:57;17.90;80.50
11246;DHT22;59870;50.106;8.580;2022-09-28T18:05:25;17.70;80.90
11246;DHT22;59870;50.106;8.580;2022-09-28T18:07:55;17.40;81.10
11246;DHT22;59870;50.106;8.580;2022-09-28T18:10:26;17.70;81.80
11246;DHT22;59870;50.106;8.580;2022-09-28T18:12:55;17.40;81.40
11246;DHT22;59870;50.106;8.580;2022-09-28T18:15:23;17.40;81.80
11246;DHT22;59870;50.106;8.580;2022-09-28T18:17:50;17.40;82.10
11246;DHT22;59870;50.106;8.580;2022-09-28T18:20:18;17.30;81.80
11246;DHT22;59870;50.106;8.580;2022-09-28T18:22:45;17.30;82.00
11246;DHT22;59870;50.106;8.580;2022-09-28T18:25:12;17.30;82.10
11246;DHT22;59870;50.106;8.580;2022-09-28T18:27:40;17.30;82.40
11246;DHT22;59870;50.106;8.580;2022-09-28T18:30:08;17.00;82.40
11246;DHT22;59870;50.106;8.580;2022-09-28T18:32:36;17.20;82.90
11246;DHT22;59870;50.106;8.580;2022-09-28T18:35:06;17.20;83.10
11246;DHT22;59870;50.106;8.580;2022-09-28T18:37:37;17.20;83.50
11246;DHT22;59870;50.106;8.580;2022-09-28T18:40:10;17.20;83.90
11246;DHT22;59870;50.106;8.580;2022-09-28T18:42:39;17.10;84.30
11246;DHT22;59870;50.106;8.580;2022-09-28T18:45:08;17.10;84.50
11246;DHT22;59870;50.106;8.580;2022-09-28T18:47:41;17.00;84.40
11246;DHT22;59870;50.106;8.580;2022-09-28T18:50:10;17.00;84.40
11246;DHT22;59870;50.106;8.580;2022-09-28T18:52:39;17.00;84.40
11246;DHT22;59870;50.106;8.580;2022-09-28T18:55:08;17.00;84.50
11246;DHT22;59870;50.106;8.580;2022-09-28T18:57:36;16.90;85.30
11246;DHT22;59870;50.106;8.580;2022-09-28T19:00:07;16.80;85.50
11246;DHT22;59870;50.106;8.580;2022-09-28T19:02:36;16.80;85.50
11246;DHT22;59870;50.106;8.580;2022-09-28T19:05:04;16.80;85.10
11246;DHT22;59870;50.106;8.580;2022-09-28T19:07:32;16.80;85.20
11246;DHT22;59870;50.106;8.580;2022-09-28T19:38:32;16.60;87.20
11246;DHT22;59870;50.106;8.580;2022-09-28T19:41:00;16.60;87.60
11246;DHT22;59870;50.106;8.580;2022-09-28T19:43:28;16.60;87.40
11246;DHT22;59870;50.106;8.580;2022-09-28T19:45:55;16.60;87.30
11246;DHT22;59870;50.106;8.580;2022-09-28T19:48:32;16.60;87.30
11246;DHT22;59870;50.106;8.580;2022-09-28T19:51:04;16.60;87.00
11246;DHT22;59870;50.106;8.580;2022-09-28T19:53:34;16.50;86.70
11246;DHT22;59870;50.106;8.580;2022-09-28T19:56:05;16.50;86.50
11246;DHT22;59870;50.106;8.580;2022-09-28T19:58:35;16.50;87.00
11246;DHT22;59870;50.106;8.580;2022-09-28T20:01:06;16.50;87.00
11246;DHT22;59870;50.106;8.580;2022-09-28T20:03:34;16.70;87.60
11246;DHT22;59870;50.106;8.580;2022-09-28T20:06:01;16.70;86.70
11246;DHT22;59870;50.106;8.580;2022-09-28T20:08:29;16.70;86.60
11246;DHT22;59870;50.106;8.580;2022-09-28T20:10:57;16.50;86.30
11246;DHT22;59870;50.106;8.580;2022-09-28T20:13:30;16.50;86.50
11246;DHT22;59870;50.106;8.580;2022-09-28T20:16:14;16.50;86.60
11246;DHT22;59870;50.106;8.580;2022-09-28T20:18:45;16.50;86.60
11246;DHT22;59870;50.106;8.580;2022-09-28T20:21:20;16.40;86.80
11246;DHT22;59870;50.106;8.580;2022-09-28T20:23:53;16.60;87.30
11246;DHT22;59870;50.106;8.580;2022-09-28T20:26:20;16.50;87.50
11246;DHT22;59870;50.106;8.580;2022-09-28T20:28:47;16.40;87.40
11246;DHT22;59870;50.106;8.580;2022-09-28T20:31:29;16.40;87.60
11246;DHT22;59870;50.106;8.580;2022-09-28T20:33:57;16.30;87.70
11246;DHT22;59870;50.106;8.580;2022-09-28T20:36:24;16.30;87.80
11246;DHT22;59870;50.106;8.580;2022-09-28T20:38:53;16.30;87.80
11246;DHT22;59870;50.106;8.580;2022-09-28T20:41:21;16.30;87.80
11246;DHT22;59870;50.106;8.580;2022-09-28T20:43:56;16.30;87.90
11246;DHT22;59870;50.106;8.580;2022-09-28T20:46:33;16.20;87.60
11246;DHT22;59870;50.106;8.580;2022-09-28T20:49:02;16.20;87.70
11246;DHT22;59870;50.106;8.580;2022-09-28T20:51:30;16.10;87.90
11246;DHT22;59870;50.106;8.580;2022-09-28T20:53:58;16.40;88.20
11246;DHT22;59870;50.106;8.580;2022-09-28T20:56:30;16.30;88.10
11246;DHT22;59870;50.106;8.580;2022-09-28T20:59:08;16.00;88.00
11246;DHT22;59870;50.106;8.580;2022-09-28T21:01:36;16.00;88.20
11246;DHT22;59870;50.106;8.580;2022-09-28T21:04:06;16.20;88.40
11246;DHT22;59870;50.106;8.580;2022-09-28T21:06:35;16.00;88.60
11246;DHT22;59870;50.106;8.580;2022-09-28T21:09:05;15.90;88.90
11246;DHT22;59870;50.106;8.580;2022-09-28T21:11:33;15.80;89.00
11246;DHT22;59870;50.106;8.580;2022-09-28T21:14:03;16.10;89.40
11246;DHT22;59870;50.106;8.580;2022-09-28T21:16:33;16.20;89.50
11246;DHT22;59870;50.106;8.580;2022-09-28T21:19:01;15.90;88.90
11246;DHT22;59870;50.106;8.580;2022-09-28T21:21:29;15.80;89.00
11246;DHT22;59870;50.106;8.580;2022-09-28T21:23:57;15.70;89.10
11246;DHT22;59870;50.106;8.580;2022-09-28T21:26:26;15.60;89.50
11246;DHT22;59870;50.106;8.580;2022-09-28T21:31:24;15.60;89.80
11246;DHT22;59870;50.106;8.580;2022-09-28T21:33:56;15.60;90.20
11246;DHT22;59870;50.106;8.580;2022-09-28T21:36:24;15.70;90.20
11246;DHT22;59870;50.106;8.580;2022-09-28T21:38:52;15.60;90.10
11246;DHT22;59870;50.106;8.580;2022-09-28T21:41:22;15.60;90.20
11246;DHT22;59870;50.106;8.580;2022-09-28T21:43:50;15.60;90.00
11246;DHT22;59870;50.106;8.580;2022-09-28T21:46:18;15.50;89.00
11246;DHT22;59870;50.106;8.580;2022-09-28T21:48:50;15.50;89.00
11246;DHT22;59870;50.106;8.580;2022-09-28T21:51:19;15.60;89.50
11246;DHT22;59870;50.106;8.580;2022-09-28T21:53:47;15.70;89.40
11246;DHT22;59870;50.106;8.580;2022-09-28T21:56:15;15.50;88.50
11246;DHT22;59870;50.106;8.580;2022-09-28T21:58:43;15.50;88.50
11246;DHT22;59870;50.106;8.580;2022-09-28T22:01:19;15.50;88.60
11246;DHT22;59870;50.106;8.580;2022-09-28T22:03:49;15.80;89.00
11246;DHT22;59870;50.106;8.580;2022-09-28T22:06:19;15.50;88.50
11246;DHT22;59870;50.106;8.580;2022-09-28T22:08:47;15.50;88.30
11246;DHT22;59870;50.106;8.580;2022-09-28T22:11:19;15.50;88.20
11246;DHT22;59870;50.106;8.580;2022-09-28T22:16:17;15.40;88.20
11246;DHT22;59870;50.106;8.580;2022-09-28T22:18:45;15.30;88.90
11246;DHT22;59870;50.106;8.580;2022-09-28T22:21:22;15.30;88.30
11246;DHT22;59870;50.106;8.580;2022-09-28T22:23:50;15.20;88.20
11246;DHT22;59870;50.106;8.580;2022-09-28T22:26:23;15.20;88.20
11246;DHT22;59870;50.106;8.580;2022-09-28T22:28:53;15.20;88.30
11246;DHT22;59870;50.106;8.580;2022-09-28T22:31:27;15.10;88.00
11246;DHT22;59870;50.106;8.580;2022-09-28T22:33:55;15.10;88.00
11246;DHT22;59870;50.106;8.580;2022-09-28T22:36:23;15.00;88.30
11246;DHT22;59870;50.106;8.580;2022-09-28T22:38:53;15.20;88.60
11246;DHT22;59870;50.106;8.580;2022-09-28T22:41:22;15.20;88.70
11246;DHT22;59870;50.106;8.580;2022-09-28T22:43:51;14.90;88.40
11246;DHT22;59870;50.106;8.580;2022-09-28T22:46:21;15.10;89.20
11246;DHT22;59870;50.106;8.580;2022-09-28T22:48:51;14.80;89.20
11246;DHT22;59870;50.106;8.580;2022-09-28T22:51:19;15.10;89.60
11246;DHT22;59870;50.106;8.580;2022-09-28T22:53:47;15.00;89.50
11246;DHT22;59870;50.106;8.580;2022-09-28T22:56:15;15.00;89.60
